createdAt,value
2023-03-06T00:00:56.780Z,1.80
2023-03-06T00:03:26.069Z,1.70
2023-03-06T00:05:56.470Z,1.55
2023-03-06T00:08:24.148Z,1.83
2023-03-06T00:10:50.828Z,1.17
2023-03-06T00:13:20.519Z,1.85
2023-03-06T00:15:51.276Z,2.35
2023-03-06T00:18:20.498Z,1.15
2023-03-06T00:20:51.481Z,2.63
2023-03-06T00:23:22.023Z,2.63
2023-03-06T00:25:48.755Z,2.33
2023-03-06T00:28:16.137Z,1.58
2023-03-06T00:30:43.343Z,1.08
2023-03-06T00:33:11.820Z,3.60
2023-03-06T00:35:40.802Z,3.50
2023-03-06T00:38:08.210Z,2.20
2023-03-06T00:40:34.813Z,1.45
2023-03-06T00:43:02.369Z,1.73
2023-03-06T00:45:29.298Z,1.90
2023-03-06T00:47:57.953Z,1.97
2023-03-06T00:50:25.639Z,2.17
2023-03-06T00:52:52.210Z,3.42
2023-03-06T00:55:19.032Z,2.90
2023-03-06T00:57:47.175Z,3.38
2023-03-06T01:00:17.378Z,3.47
2023-03-06T01:02:43.932Z,2.95
2023-03-06T01:05:13.371Z,2.50
2023-03-06T01:07:40.057Z,2.25
2023-03-06T01:10:08.264Z,1.83
2023-03-06T01:12:36.422Z,2.57
2023-03-06T01:15:03.886Z,2.40
2023-03-06T01:17:31.804Z,2.85
2023-03-06T01:19:59.407Z,2.10
2023-03-06T01:22:26.592Z,4.20
2023-03-06T01:24:53.215Z,3.10
2023-03-06T01:27:19.718Z,3.33
2023-03-06T01:29:46.341Z,2.40
2023-03-06T01:32:13.062Z,5.57
2023-03-06T01:34:39.976Z,3.13
2023-03-06T01:37:06.654Z,4.73
2023-03-06T01:39:40.380Z,5.32
2023-03-06T01:42:07.549Z,6.25
2023-03-06T01:44:35.042Z,4.38
2023-03-06T01:47:02.446Z,5.30
2023-03-06T01:49:37.193Z,5.10
2023-03-06T01:52:05.329Z,3.28
2023-03-06T01:54:35.736Z,3.40
2023-03-06T01:57:09.567Z,3.33
2023-03-06T01:59:37.300Z,4.05
2023-03-06T02:02:06.440Z,3.53
2023-03-06T02:04:33.831Z,4.47
2023-03-06T02:07:07.430Z,3.65
2023-03-06T02:09:36.152Z,3.42
2023-03-06T02:12:08.746Z,7.20
2023-03-06T02:14:37.184Z,4.27
2023-03-06T02:17:06.940Z,4.85
2023-03-06T02:20:13.393Z,4.43
2023-03-06T02:22:51.177Z,4.22
2023-03-06T02:25:30.927Z,5.15
2023-03-06T02:27:58.150Z,4.10
2023-03-06T02:30:28.378Z,5.85
2023-03-06T02:32:55.656Z,5.30
2023-03-06T02:35:26.441Z,5.38
2023-03-06T02:37:54.224Z,6.50
2023-03-06T02:40:23.784Z,5.33
2023-03-06T02:42:56.770Z,6.03
2023-03-06T02:45:36.012Z,6.28
2023-03-06T02:48:03.450Z,6.60
2023-03-06T02:50:30.625Z,6.57
2023-03-06T02:52:57.550Z,9.87
2023-03-06T02:55:24.908Z,7.75
2023-03-06T02:57:51.833Z,7.68
2023-03-06T03:00:19.135Z,8.20
2023-03-06T03:02:47.793Z,6.45
2023-03-06T03:05:16.359Z,9.50
2023-03-06T03:07:43.083Z,11.07
2023-03-06T03:10:10.381Z,8.75
2023-03-06T03:12:37.084Z,10.25
2023-03-06T03:15:06.017Z,9.02
2023-03-06T03:17:37.283Z,9.07
2023-03-06T03:20:05.897Z,7.95
2023-03-06T03:22:32.561Z,8.00
2023-03-06T03:25:02.741Z,8.70
2023-03-06T03:27:30.691Z,11.38
2023-03-06T03:29:59.186Z,7.87
2023-03-06T03:32:28.677Z,6.00
2023-03-06T03:34:56.364Z,10.18
2023-03-06T03:37:23.202Z,8.00
2023-03-06T03:39:49.843Z,8.52
2023-03-06T03:42:16.432Z,6.47
2023-03-06T03:44:42.972Z,6.65
2023-03-06T03:47:10.353Z,7.78
2023-03-06T03:49:36.922Z,7.97
2023-03-06T03:52:05.151Z,10.35
2023-03-06T03:54:31.681Z,9.87
2023-03-06T03:56:58.447Z,6.95
2023-03-06T03:59:25.188Z,8.10
2023-03-06T04:01:52.528Z,7.93
2023-03-06T04:04:19.323Z,7.05
2023-03-06T04:06:45.944Z,8.17
2023-03-06T04:09:12.588Z,12.15
2023-03-06T04:11:39.164Z,7.13
2023-03-06T04:14:08.252Z,6.57
2023-03-06T04:16:34.974Z,7.00
2023-03-06T04:19:01.640Z,6.90
2023-03-06T04:21:28.481Z,6.45
2023-03-06T04:23:55.346Z,7.65
2023-03-06T04:26:21.914Z,7.70
2023-03-06T04:28:48.588Z,6.75
2023-03-06T04:31:15.844Z,8.87
2023-03-06T04:33:42.785Z,7.22
2023-03-06T04:36:24.300Z,6.72
2023-03-06T04:38:51.517Z,8.05
2023-03-06T04:41:18.140Z,6.32
2023-03-06T04:43:46.375Z,7.30
2023-03-06T04:46:13.101Z,5.43
2023-03-06T04:48:41.777Z,6.40
2023-03-06T04:51:09.540Z,6.25
2023-03-06T04:53:36.348Z,8.23
2023-03-06T04:56:03.964Z,5.10
2023-03-06T04:58:30.775Z,4.70
2023-03-06T05:00:57.498Z,5.68
2023-03-06T05:03:24.120Z,6.80
2023-03-06T05:05:50.821Z,4.15
2023-03-06T05:08:19.566Z,4.17
2023-03-06T05:10:46.307Z,4.82
2023-03-06T05:13:13.081Z,3.63
2023-03-06T05:15:41.113Z,3.72
2023-03-06T05:18:08.021Z,3.47
2023-03-06T05:20:35.914Z,5.73
2023-03-06T05:23:02.559Z,4.13
2023-03-06T05:25:29.530Z,3.10
2023-03-06T05:27:56.399Z,3.22
2023-03-06T05:30:23.511Z,2.78
2023-03-06T05:32:50.847Z,2.73
2023-03-06T05:35:20.377Z,2.45
2023-03-06T05:37:48.483Z,2.45
2023-03-06T05:40:17.359Z,2.20
2023-03-06T05:42:44.163Z,3.08
2023-03-06T05:45:11.398Z,2.60
2023-03-06T05:47:38.133Z,3.05
2023-03-06T05:50:08.196Z,5.63
2023-03-06T05:52:37.260Z,4.00
2023-03-06T05:55:04.043Z,2.65
2023-03-06T05:57:30.698Z,3.63
2023-03-06T05:59:57.314Z,1.80
2023-03-06T06:02:26.005Z,4.05
2023-03-06T06:04:53.104Z,1.73
2023-03-06T06:07:19.681Z,2.00
2023-03-06T06:09:52.991Z,1.70
2023-03-06T06:12:19.931Z,1.70
2023-03-06T06:14:48.692Z,3.22
2023-03-06T06:17:17.051Z,3.45
2023-03-06T06:19:45.799Z,3.78
2023-03-06T06:22:12.809Z,3.43
2023-03-06T06:24:39.583Z,3.33
2023-03-06T06:27:09.576Z,1.60
2023-03-06T06:29:39.194Z,5.22
2023-03-06T06:32:07.117Z,1.70
2023-03-06T06:34:34.203Z,2.70
2023-03-06T06:37:01.943Z,2.15
2023-03-06T06:39:29.559Z,1.70
2023-03-06T06:42:14.690Z,3.90
2023-03-06T06:44:42.734Z,1.55
2023-03-06T06:47:25.928Z,1.00
2023-03-06T06:49:54.968Z,0.80
2023-03-06T06:52:22.421Z,2.40
2023-03-06T06:54:48.977Z,1.33
2023-03-06T06:57:16.294Z,1.00
2023-03-06T06:59:43.084Z,1.60
2023-03-06T07:02:14.656Z,2.25
2023-03-06T07:05:00.184Z,0.63
2023-03-06T07:07:30.084Z,0.50
2023-03-06T07:09:57.910Z,1.63
2023-03-06T07:12:25.782Z,1.40
2023-03-06T07:14:52.356Z,1.92
2023-03-06T07:17:18.889Z,0.77
2023-03-06T07:19:46.502Z,1.17
2023-03-06T07:22:13.265Z,2.55
2023-03-06T07:24:40.855Z,1.83
2023-03-06T07:27:07.554Z,1.60
2023-03-06T07:29:34.843Z,1.20
2023-03-06T07:32:01.722Z,2.58
2023-03-06T07:34:28.431Z,1.25
2023-03-06T07:36:55.340Z,0.90
2023-03-06T07:39:21.974Z,1.80
2023-03-06T07:41:48.655Z,1.63
2023-03-06T07:44:15.245Z,0.60
2023-03-06T07:46:45.514Z,1.88
2023-03-06T07:49:12.150Z,5.03
2023-03-06T07:51:40.120Z,0.47
2023-03-06T07:54:08.409Z,0.85
2023-03-06T07:56:37.106Z,1.15
2023-03-06T07:59:04.027Z,0.60
2023-03-06T08:01:31.723Z,0.90
2023-03-06T08:04:02.126Z,0.70
2023-03-06T08:06:30.209Z,1.38
2023-03-06T08:08:57.138Z,32.40
2023-03-06T08:11:26.540Z,1.77
2023-03-06T08:14:02.242Z,2.17
2023-03-06T08:16:31.833Z,0.40
2023-03-06T08:18:58.547Z,0.55
2023-03-06T08:21:27.457Z,0.55
2023-03-06T08:23:54.440Z,0.88
2023-03-06T08:26:29.120Z,3.53
2023-03-06T08:28:59.736Z,1.10
2023-03-06T08:31:28.282Z,1.73
2023-03-06T08:33:56.545Z,0.80
2023-03-06T08:36:27.048Z,1.05
2023-03-06T08:38:54.823Z,1.27
2023-03-06T08:41:22.054Z,0.88
2023-03-06T08:43:49.807Z,0.25
2023-03-06T08:46:18.907Z,0.32
2023-03-06T08:48:47.835Z,0.80
2023-03-06T08:51:15.396Z,1.30
2023-03-06T08:53:44.242Z,2.15
2023-03-06T08:56:18.678Z,3.67
2023-03-06T08:58:45.373Z,2.00
2023-03-06T09:01:16.955Z,0.85
2023-03-06T09:03:43.759Z,0.43
2023-03-06T09:06:10.594Z,1.20
2023-03-06T09:08:37.427Z,0.98
2023-03-06T09:11:04.707Z,1.27
2023-03-06T09:13:36.735Z,2.50
2023-03-06T09:16:05.423Z,1.40
2023-03-06T09:18:32.140Z,0.75
2023-03-06T09:21:00.872Z,1.55
2023-03-06T09:23:28.005Z,2.80
2023-03-06T09:25:58.633Z,0.32
2023-03-06T09:28:25.849Z,1.60
2023-03-06T09:30:53.980Z,1.85
2023-03-06T09:33:21.491Z,1.17
2023-03-06T09:35:55.014Z,1.20
2023-03-06T09:38:25.227Z,0.40
2023-03-06T09:41:17.689Z,1.23
2023-03-06T09:43:52.084Z,3.67
2023-03-06T09:46:33.777Z,0.60
2023-03-06T09:49:31.957Z,0.35
2023-03-06T09:52:29.346Z,2.08
2023-03-06T09:55:00.176Z,2.90
2023-03-06T09:57:32.239Z,1.00
2023-03-06T10:00:05.750Z,1.35
2023-03-06T10:02:46.813Z,1.80
2023-03-06T10:05:21.595Z,0.68
2023-03-06T10:07:57.814Z,0.37
2023-03-06T10:10:27.659Z,0.70
2023-03-06T10:13:06.627Z,0.95
2023-03-06T10:15:36.206Z,1.00
2023-03-06T10:18:04.462Z,2.10
2023-03-06T10:20:47.558Z,0.20
2023-03-06T10:23:31.351Z,1.13
2023-03-06T10:26:07.629Z,2.22
2023-03-06T10:28:41.858Z,1.00
2023-03-06T10:31:16.752Z,0.25
2023-03-06T10:34:07.890Z,0.57
2023-03-06T10:36:34.479Z,1.98
2023-03-06T10:39:09.742Z,1.95
2023-03-06T10:41:38.288Z,2.03
2023-03-06T10:44:04.852Z,1.02
2023-03-06T10:46:46.988Z,2.17
2023-03-06T10:49:34.518Z,0.20
2023-03-06T10:52:03.976Z,0.70
2023-03-06T10:54:33.836Z,0.95
2023-03-06T10:57:20.626Z,0.25
2023-03-06T10:59:53.671Z,1.83
2023-03-06T11:02:29.568Z,1.10
2023-03-06T11:04:58.447Z,0.45
2023-03-06T11:07:29.044Z,0.63
2023-03-06T11:09:56.610Z,2.25
2023-03-06T11:12:25.822Z,0.93
2023-03-06T11:15:21.358Z,0.80
2023-03-06T11:17:56.570Z,1.23
2023-03-06T11:20:27.801Z,1.10
2023-03-06T11:29:49.675Z,0.80
2023-03-06T11:32:27.883Z,0.20
2023-03-06T11:35:00.267Z,0.47
2023-03-06T11:37:47.208Z,1.58
2023-03-06T11:40:27.440Z,0.80
2023-03-06T11:43:04.085Z,0.55
2023-03-06T11:45:47.859Z,1.52
2023-03-06T11:51:07.062Z,1.00
2023-03-06T11:53:44.248Z,1.83
2023-03-06T11:56:25.780Z,0.70
2023-03-06T11:59:04.683Z,2.13
2023-03-06T12:02:11.287Z,1.35
2023-03-06T12:11:42.223Z,1.33
2023-03-06T12:14:16.470Z,2.58
2023-03-06T12:16:45.544Z,1.45
2023-03-06T12:19:48.717Z,0.80
2023-03-06T12:22:33.893Z,3.60
2023-03-06T12:25:36.722Z,1.90
2023-03-06T12:28:16.778Z,0.80
2023-03-06T12:31:05.965Z,1.33
2023-03-06T12:34:01.691Z,3.15
2023-03-06T12:36:48.990Z,4.47
2023-03-06T12:39:26.061Z,2.33
2023-03-06T12:42:00.292Z,26.02
2023-03-06T12:44:49.590Z,5.07
2023-03-06T12:47:22.413Z,2.22
2023-03-06T12:49:57.198Z,3.17
2023-03-06T12:52:32.849Z,3.72
2023-03-06T12:55:04.806Z,18.70
2023-03-06T12:57:37.355Z,6.40
2023-03-06T13:00:06.995Z,49.10
2023-03-06T13:02:45.898Z,44.77
2023-03-06T13:05:24.308Z,9.40
2023-03-06T13:08:14.982Z,3.75
2023-03-06T13:10:47.230Z,1.75
2023-03-06T13:13:36.862Z,3.17
2023-03-06T13:16:12.031Z,2.20
2023-03-06T13:18:38.629Z,2.42
2023-03-06T13:21:26.502Z,4.38
2023-03-06T13:24:06.743Z,5.93
2023-03-06T13:26:39.464Z,2.67
2023-03-06T13:29:35.857Z,4.33
2023-03-06T13:32:02.409Z,4.82
2023-03-06T13:34:35.150Z,4.55
2023-03-06T13:37:16.240Z,4.13
2023-03-06T13:39:57.665Z,4.40
2023-03-06T13:42:31.191Z,4.40
2023-03-06T13:45:07.580Z,4.03
2023-03-06T13:48:06.526Z,5.78
2023-03-06T13:50:38.766Z,7.00
2023-03-06T13:53:40.736Z,5.97
2023-03-06T13:56:26.978Z,5.73
2023-03-06T13:59:00.631Z,6.88
2023-03-06T14:01:35.688Z,6.45
2023-03-06T14:04:36.213Z,6.07
2023-03-06T14:07:29.764Z,6.95
2023-03-06T14:09:59.630Z,5.80
2023-03-06T14:12:33.329Z,5.65
2023-03-06T14:15:09.023Z,8.77
2023-03-06T14:17:39.328Z,6.00
2023-03-06T14:20:16.683Z,5.88
2023-03-06T14:22:43.616Z,4.90
2023-03-06T14:25:34.583Z,5.63
2023-03-06T14:28:15.770Z,6.85
2023-03-06T14:30:50.331Z,7.15
2023-03-06T14:33:29.355Z,4.72
2023-03-06T14:35:59.626Z,5.37
2023-03-06T14:38:28.809Z,4.07
2023-03-06T14:40:57.532Z,6.30
2023-03-06T14:43:27.809Z,4.65
2023-03-06T14:46:01.683Z,4.78
2023-03-06T14:48:46.183Z,5.87
2023-03-06T14:51:17.239Z,5.63
2023-03-06T14:53:45.725Z,5.13
2023-03-06T14:56:17.862Z,7.63
2023-03-06T14:58:51.727Z,4.75
2023-03-06T15:01:27.242Z,5.30
2023-03-06T15:03:58.973Z,66.75
2023-03-06T15:06:31.224Z,19.73
2023-03-06T15:09:15.497Z,5.40
2023-03-06T15:11:54.003Z,11.50
2023-03-06T15:14:28.351Z,4.87
2023-03-06T15:16:55.090Z,6.90
2023-03-06T15:19:22.739Z,6.18
2023-03-06T15:21:51.967Z,5.70
2023-03-06T15:24:33.424Z,4.88
2023-03-06T15:27:03.807Z,5.10
2023-03-06T15:29:31.116Z,4.78
2023-03-06T15:32:31.258Z,6.53
2023-03-06T15:35:30.087Z,6.65
2023-03-06T15:37:57.881Z,3.90
2023-03-06T15:40:27.425Z,5.03
2023-03-06T15:42:55.425Z,3.75
2023-03-06T15:45:25.082Z,5.10
2023-03-06T15:47:54.560Z,5.57
2023-03-06T15:50:26.917Z,4.95
2023-03-06T15:52:55.995Z,5.57
2023-03-06T15:55:26.043Z,5.13
2023-03-06T15:57:59.575Z,7.85
2023-03-06T16:00:28.836Z,5.55
2023-03-06T16:02:57.135Z,7.05
2023-03-06T16:05:25.374Z,7.93
2023-03-06T16:07:53.564Z,11.48
2023-03-06T16:10:22.719Z,10.23
2023-03-06T16:12:54.467Z,9.05
2023-03-06T16:15:30.015Z,9.93
2023-03-06T16:17:57.871Z,15.70
2023-03-06T16:20:35.796Z,12.18
2023-03-06T16:23:12.078Z,11.82
2023-03-06T16:31:41.940Z,14.43
2023-03-06T16:34:15.635Z,16.50
2023-03-06T16:36:45.840Z,15.70
2023-03-06T16:42:12.740Z,13.23
2023-03-06T16:44:41.584Z,15.33
2023-03-06T16:50:01.558Z,14.20
2023-03-06T16:52:28.840Z,14.90
2023-03-06T16:54:56.456Z,14.75
2023-03-06T16:57:31.842Z,14.07
2023-03-06T17:00:02.094Z,17.55
2023-03-06T17:02:28.999Z,16.92
2023-03-06T17:05:00.644Z,13.93
2023-03-06T17:07:29.842Z,12.68
2023-03-06T17:09:58.663Z,13.97
2023-03-06T17:12:33.071Z,14.38
2023-03-06T17:14:59.836Z,17.58
2023-03-06T17:17:27.154Z,13.70
2023-03-06T17:19:56.323Z,13.63
2023-03-06T17:22:24.402Z,12.90
2023-03-06T17:24:52.288Z,15.25
2023-03-06T17:30:05.465Z,14.48
2023-03-06T17:32:38.569Z,13.88
2023-03-06T17:35:06.901Z,15.00
2023-03-06T17:37:34.935Z,14.00
2023-03-06T17:40:02.979Z,15.52
2023-03-06T17:42:30.156Z,15.57
2023-03-06T17:45:00.266Z,19.40
2023-03-06T17:47:34.046Z,18.03
2023-03-06T17:50:01.598Z,15.40
2023-03-06T17:52:31.612Z,16.73
2023-03-06T17:55:05.699Z,15.55
2023-03-06T17:57:33.957Z,13.52
2023-03-06T18:00:00.777Z,13.57
2023-03-06T18:02:27.534Z,15.73
2023-03-06T18:05:06.180Z,13.95
2023-03-06T18:07:38.382Z,13.90
2023-03-06T18:10:07.210Z,16.05
2023-03-06T18:12:34.583Z,15.80
2023-03-06T18:15:02.248Z,14.70
2023-03-06T18:17:39.281Z,15.90
2023-03-06T18:20:10.429Z,18.38
2023-03-06T18:22:39.593Z,17.30
2023-03-06T18:25:15.773Z,21.97
2023-03-06T18:27:43.509Z,17.20
2023-03-06T18:30:13.647Z,16.65
2023-03-06T18:32:40.971Z,14.65
2023-03-06T18:35:09.620Z,17.10
2023-03-06T18:37:36.160Z,20.37
2023-03-06T18:40:02.898Z,17.27
2023-03-06T18:42:30.438Z,19.35
2023-03-06T18:44:57.210Z,18.00
2023-03-06T18:47:24.971Z,16.58
2023-03-06T18:49:51.545Z,17.13
2023-03-06T18:52:18.238Z,18.73
2023-03-06T18:54:46.207Z,18.45
2023-03-06T18:57:12.788Z,22.20
2023-03-06T18:59:39.397Z,18.30
2023-03-06T19:02:05.985Z,17.20
2023-03-06T19:04:32.617Z,15.30
2023-03-06T19:06:59.260Z,16.42
2023-03-06T19:09:25.908Z,19.38
2023-03-06T19:11:54.812Z,16.30
2023-03-06T19:14:21.641Z,17.80
2023-03-06T19:16:48.365Z,17.08
2023-03-06T19:19:15.221Z,20.65
2023-03-06T19:21:41.724Z,21.05
2023-03-06T19:24:14.297Z,17.33
2023-03-06T19:26:41.961Z,20.27
2023-03-06T19:29:08.710Z,18.05
2023-03-06T19:31:35.548Z,20.30
2023-03-06T19:34:02.127Z,19.45
2023-03-06T19:36:33.616Z,17.05
2023-03-06T19:39:03.121Z,17.97
2023-03-06T19:41:29.796Z,20.75
2023-03-06T19:44:03.396Z,21.25
2023-03-06T19:46:32.013Z,19.42
2023-03-06T19:49:01.054Z,20.08
2023-03-06T19:51:28.649Z,22.47
2023-03-06T19:53:56.332Z,18.98
2023-03-06T19:56:26.089Z,21.95
2023-03-06T19:58:53.202Z,22.20
2023-03-06T20:15:43.325Z,18.50
2023-03-06T20:18:15.640Z,20.80
2023-03-06T20:21:03.021Z,21.75
2023-03-06T20:23:32.511Z,21.45
2023-03-06T20:26:06.987Z,20.85
2023-03-06T20:28:39.137Z,25.98
2023-03-06T20:31:13.488Z,22.27
2023-03-06T20:33:40.490Z,20.35
2023-03-06T20:39:04.359Z,22.40
2023-03-06T20:41:45.092Z,20.25
2023-03-06T20:44:19.551Z,22.00
2023-03-06T20:49:37.682Z,19.25
2023-03-06T20:52:04.950Z,18.50
2023-03-06T20:54:35.719Z,20.42
2023-03-06T20:57:07.643Z,19.77
2023-03-06T20:59:42.801Z,18.55
2023-03-06T21:04:56.199Z,19.17
2023-03-06T21:07:28.392Z,18.52
2023-03-06T21:09:57.262Z,18.53
2023-03-06T21:12:27.354Z,18.48
2023-03-06T21:14:54.522Z,19.70
2023-03-06T21:17:28.461Z,19.38
2023-03-06T21:19:56.253Z,16.48
2023-03-06T21:22:25.506Z,19.50
2023-03-06T21:24:55.645Z,17.70
2023-03-06T21:35:39.251Z,15.93
2023-03-06T21:38:11.264Z,17.52
2023-03-06T21:40:40.362Z,19.20
2023-03-06T21:43:34.210Z,17.42
2023-03-06T21:46:00.500Z,16.33
2023-03-06T22:05:33.100Z,14.73
2023-03-06T22:10:55.651Z,11.68
2023-03-06T22:13:26.341Z,12.15
2023-03-06T22:15:59.694Z,10.03
2023-03-06T22:18:30.064Z,8.68
2023-03-06T22:21:09.967Z,9.57
2023-03-06T22:23:48.692Z,9.20
2023-03-06T22:37:25.286Z,6.97
2023-03-06T22:39:59.064Z,6.05
2023-03-06T22:50:52.369Z,4.18
2023-03-06T22:53:23.551Z,4.80
2023-03-06T22:55:52.236Z,7.53
2023-03-06T23:04:18.960Z,5.60
2023-03-06T23:12:37.982Z,7.97
2023-03-06T23:15:31.807Z,3.30
2023-03-06T23:18:23.819Z,4.15
2023-03-06T23:20:52.619Z,7.30
2023-03-06T23:26:31.354Z,3.35
2023-03-06T23:29:04.952Z,7.22
2023-03-06T23:31:55.321Z,7.47
2023-03-06T23:37:52.442Z,4.80
2023-03-06T23:40:22.353Z,4.03
2023-03-06T23:45:36.956Z,5.32
2023-03-06T23:48:46.685Z,6.38
2023-03-06T23:51:19.084Z,5.13
2023-03-06T23:56:30.360Z,6.07
